| time (UTC) | temp F | wind direction | speed MPH | gust MPH | rain 1hr in | rain 24hr in | rain mn in | humidity % | barometer mb |
| 20260502194616 | 70 | 287 | 2.0 | 7.0 | 0.00 | 0.00 | 0.00 | 23 | 1016.7 |
| 20260502193616 | 70 | 257 | 1.0 | 3.0 | 0.00 | 0.00 | 0.00 | 24 | 1016.9 |
| 20260502192616 | 69 | 263 | 3.0 | 7.0 | 0.00 | 0.00 | 0.00 | 25 | 1017.0 |
| 20260502191618 | 69 | 275 | 1.0 | 7.0 | 0.00 | 0.00 | 0.00 | 22 | 1017.2 |
| 20260502190616 | 68 | 246 | 2.0 | 4.0 | 0.00 | 0.00 | 0.00 | 24 | 1017.4 |
| 20260502185656 | 67 | 283 | 2.0 | 3.0 | 0.00 | 0.00 | 0.00 | 26 | 1017.5 |
| 20260502184636 | 67 | 281 | 1.0 | 6.0 | 0.00 | 0.00 | 0.00 | 23 | 1017.6 |
| 20260502183615 | 66 | 265 | 4.0 | 7.0 | 0.00 | 0.00 | 0.00 | 27 | 1017.7 |
| 20260502182615 | 66 | 30 | 2.0 | 3.0 | 0.00 | 0.00 | 0.00 | 30 | 1017.8 |
| 20260502181636 | 66 | 263 | 1.0 | 3.0 | 0.00 | 0.00 | 0.00 | 25 | 1017.9 |
| 20260502180617 | 66 | 268 | 3.0 | 8.0 | 0.00 | 0.00 | 0.00 | 24 | 1018.0 |
| 20260502163616 | 62 | 267 | 1.0 | 2.0 | 0.00 | 0.00 | 0.00 | 28 | 1018.4 |
| 20260502162621 | 61 | 269 | 1.0 | 2.0 | 0.00 | 0.00 | 0.00 | 29 | 1018.5 |
| 20260502161616 | 60 | 51 | 1.0 | 3.0 | 0.00 | 0.00 | 0.00 | 32 | 1018.5 |
| 20260502160616 | 60 | 263 | 1.0 | 2.0 | 0.00 | 0.00 | 0.00 | 31 | 1018.5 |
| 20260502151617 | 56 | 0.0 | 0.0 | 0.00 | 0.00 | 0.00 | 40 | 1018.7 | |
| 20260502150617 | 54 | 0.0 | 0.0 | 0.00 | 0.00 | 0.00 | 44 | 1018.9 | |
| 20260502130618 | 33 | 117 | 0.0 | 1.0 | 0.00 | 0.00 | 0.00 | 72 | 1018.8 |
| 20260502123617 | 33 | 0.0 | 0.0 | 0.00 | 0.00 | 0.00 | 68 | 1018.5 | |
| 20260502122637 | 34 | 0.0 | 0.0 | 0.00 | 0.00 | 0.00 | 66 | 1018.6 | |
| 20260502121617 | 37 | 0.0 | 0.0 | 0.00 | 0.00 | 0.00 | 61 | 1018.5 | |
| 20260502120618 | 34 | 105 | 0.0 | 1.0 | 0.00 | 0.00 | 0.00 | 64 | 1018.5 |
| 20260502115617 | 35 | 0.0 | 1.0 | 0.00 | 0.00 | 0.00 | 63 | 1018.5 | |
| 20260502114617 | 34 | 101 | 0.0 | 1.0 | 0.00 | 0.00 | 0.00 | 65 | 1018.4 |
| 20260502113617 | 34 | 117 | 0.0 | 1.0 | 0.00 | 0.00 | 0.00 | 68 | 1018.4 |
| 20260502112618 | 36 | 0.0 | 0.0 | 0.00 | 0.00 | 0.00 | 63 | 1018.5 | |
| 20260502111618 | 38 | 0.0 | 0.0 | 0.00 | 0.00 | 0.00 | 55 | 1018.5 | |
| 20260502110637 | 37 | 91 | 1.0 | 2.0 | 0.00 | 0.00 | 0.00 | 59 | 1018.5 |
| 20260502105617 | 36 | 104 | 0.0 | 1.0 | 0.00 | 0.00 | 0.00 | 60 | 1018.5 |
| 20260502104617 | 36 | 0.0 | 1.0 | 0.00 | 0.00 | 0.00 | 63 | 1018.4 | |
| 20260502103618 | 37 | 0.0 | 1.0 | 0.00 | 0.00 | 0.00 | 58 | 1018.3 | |
| 20260502102637 | 38 | 0.0 | 0.0 | 0.00 | 0.00 | 0.00 | 56 | 1018.3 | |
| 20260502101637 | 39 | 76 | 1.0 | 2.0 | 0.00 | 0.00 | 0.00 | 53 | 1018.2 |
| 20260502100637 | 41 | 83 | 1.0 | 2.0 | 0.00 | 0.00 | 0.00 | 50 | 1018.3 |
| 20260502090617 | 38 | 0.0 | 0.0 | 0.00 | 0.00 | 0.00 | 57 | 1018.3 | |
| 20260502070617 | 40 | 0.0 | 0.0 | 0.00 | 0.00 | 0.00 | 55 | 1017.9 | |
| 20260502065616 | 41 | 0.0 | 0.0 | 0.00 | 0.00 | 0.00 | 53 | 1017.9 | |
| 20260502064617 | 43 | 0.0 | 0.0 | 0.00 | 0.00 | 0.00 | 50 | 1017.9 | |
| 20260502063617 | 43 | 91 | 1.0 | 1.0 | 0.00 | 0.00 | 0.00 | 48 | 1017.7 |
| 20260502062616 | 43 | 101 | 0.0 | 1.0 | 0.00 | 0.00 | 0.00 | 50 | 1017.7 |
| 20260502061636 | 43 | 0.0 | 1.0 | 0.00 | 0.00 | 0.00 | 48 | 1017.8 | |
| 20260502060616 | 43 | 101 | 1.0 | 2.0 | 0.00 | 0.00 | 0.00 | 47 | 1017.7 |
| 20260502055617 | 45 | 77 | 0.0 | 1.0 | 0.00 | 0.00 | 0.00 | 45 | 1017.7 |
| 20260502054637 | 44 | 117 | 0.0 | 2.0 | 0.00 | 0.00 | 0.00 | 47 | 1017.8 |
| 20260502053617 | 44 | 100 | 1.0 | 2.0 | 0.00 | 0.00 | 0.00 | 47 | 1017.7 |
| 20260502052617 | 44 | 51 | 0.0 | 2.0 | 0.00 | 0.00 | 0.00 | 47 | 1017.8 |
| 20260502051618 | 45 | 58 | 1.0 | 3.0 | 0.00 | 0.00 | 0.00 | 45 | 1017.9 |
| 20260502050617 | 44 | 84 | 1.0 | 3.0 | 0.00 | 0.00 | 0.00 | 47 | 1017.8 |
| 20260502045616 | 45 | 49 | 1.0 | 2.0 | 0.00 | 0.00 | 0.00 | 46 | 1017.8 |
| 20260502044617 | 46 | 68 | 0.0 | 2.0 | 0.00 | 0.00 | 0.00 | 45 | 1017.9 |
| 20260502043617 | 46 | 56 | 2.0 | 3.0 | 0.00 | 0.00 | 0.00 | 44 | 1017.9 |
| 20260502042616 | 46 | 54 | 2.0 | 4.0 | 0.00 | 0.00 | 0.00 | 44 | 1017.9 |
| 20260502041617 | 46 | 75 | 2.0 | 5.0 | 0.00 | 0.00 | 0.00 | 45 | 1018.0 |
| 20260502040617 | 47 | 86 | 2.0 | 3.0 | 0.00 | 0.00 | 0.00 | 44 | 1018.0 |
| 20260502035636 | 48 | 79 | 2.0 | 4.0 | 0.00 | 0.00 | 0.00 | 40 | 1017.9 |
| 20260502034616 | 48 | 82 | 2.0 | 5.0 | 0.00 | 0.00 | 0.00 | 41 | 1017.9 |
| 20260502033617 | 48 | 65 | 2.0 | 3.0 | 0.00 | 0.00 | 0.00 | 40 | 1017.8 |
| 20260502032636 | 49 | 77 | 2.0 | 4.0 | 0.00 | 0.00 | 0.00 | 41 | 1017.8 |
| 20260502031616 | 49 | 67 | 2.0 | 5.0 | 0.00 | 0.00 | 0.00 | 39 | 1017.7 |
| 20260502030616 | 51 | 60 | 3.0 | 6.0 | 0.00 | 0.00 | 0.00 | 39 | 1017.6 |
| 20260502025617 | 53 | 99 | 0.0 | 1.0 | 0.00 | 0.00 | 0.00 | 34 | 1017.4 |
| 20260502024616 | 55 | 0.0 | 0.0 | 0.00 | 0.00 | 0.00 | 32 | 1017.3 | |
| 20260502023616 | 57 | 80 | 0.0 | 1.0 | 0.00 | 0.00 | 0.00 | 29 | 1017.2 |
| 20260502022622 | 59 | 64 | 0.0 | 1.0 | 0.00 | 0.00 | 0.00 | 25 | 1017.2 |
| 20260502021616 | 62 | 64 | 0.0 | 1.0 | 0.00 | 0.00 | 0.00 | 23 | 1017.2 |
| 20260502020616 | 63 | 60 | 0.0 | 1.0 | 0.00 | 0.00 | 0.00 | 19 | 1017.2 |
| 20260502015638 | 66 | 61 | 0.0 | 1.0 | 0.00 | 0.00 | 0.00 | 17 | 1017.2 |
| 20260502014616 | 65 | 60 | 1.0 | 1.0 | 0.00 | 0.00 | 0.00 | 16 | 1017.2 |
| 20260502013636 | 67 | 32 | 1.0 | 1.0 | 0.00 | 0.00 | 0.00 | 16 | 1017.2 |
| 20260502012616 | 67 | 0.0 | 0.0 | 0.00 | 0.00 | 0.00 | 18 | 1017.4 | |
| 20260502011618 | 66 | 59 | 0.0 | 1.0 | 0.00 | 0.00 | 0.00 | 18 | 1017.4 |
| 20260502010616 | 68 | 46 | 0.0 | 1.0 | 0.00 | 0.00 | 0.00 | 18 | 1017.4 |
| 20260502005617 | 68 | 20 | 0.0 | 1.0 | 0.00 | 0.00 | 0.00 | 19 | 1017.4 |
| 20260502004621 | 69 | 40 | 1.0 | 2.0 | 0.00 | 0.00 | 0.00 | 17 | 1017.6 |
| 20260502003616 | 69 | 304 | 0.0 | 1.0 | 0.00 | 0.00 | 0.00 | 22 | 1017.5 |
| 20260502002616 | 68 | 0.0 | 2.0 | 0.00 | 0.00 | 0.00 | 19 | 1017.6 | |
| 20260502001616 | 69 | 275 | 1.0 | 2.0 | 0.00 | 0.00 | 0.00 | 16 | 1017.7 |
| 20260502000657 | 69 | 15 | 1.0 | 2.0 | 0.00 | 0.00 | 0.00 | 17 | 1017.6 |
| 20260501235617 | 70 | 277 | 1.0 | 2.0 | 0.00 | 0.00 | 0.00 | 17 | 1017.7 |
| 20260501234616 | 70 | 259 | 0.0 | 2.0 | 0.00 | 0.00 | 0.00 | 17 | 1017.6 |
| 20260501233616 | 70 | 302 | 0.0 | 1.0 | 0.00 | 0.00 | 0.00 | 24 | 1017.8 |
| 20260501232617 | 69 | 258 | 2.0 | 3.0 | 0.00 | 0.00 | 0.00 | 18 | 1018.0 |
| 20260501231637 | 68 | 233 | 1.0 | 4.0 | 0.00 | 0.00 | 0.00 | 17 | 1018.0 |
| 20260501230617 | 68 | 273 | 2.0 | 3.0 | 0.00 | 0.00 | 0.00 | 17 | 1018.0 |
| 20260501225617 | 66 | 83 | 1.0 | 3.0 | 0.00 | 0.00 | 0.00 | 17 | 1018.1 |
| 20260501224616 | 68 | 275 | 1.0 | 2.0 | 0.00 | 0.00 | 0.00 | 17 | 1018.1 |
| 20260501223636 | 69 | 248 | 2.0 | 3.0 | 0.00 | 0.00 | 0.00 | 16 | 1018.3 |
| 20260501222617 | 69 | 255 | 2.0 | 4.0 | 0.00 | 0.00 | 0.00 | 19 | 1018.3 |
| 20260501221616 | 68 | 266 | 3.0 | 6.0 | 0.00 | 0.00 | 0.00 | 21 | 1018.4 |
| 20260501220637 | 69 | 259 | 2.0 | 6.0 | 0.00 | 0.00 | 0.00 | 21 | 1018.5 |
| 20260501215616 | 68 | 258 | 1.0 | 2.0 | 0.00 | 0.00 | 0.00 | 23 | 1018.7 |
| 20260501214616 | 67 | 116 | 1.0 | 2.0 | 0.00 | 0.00 | 0.00 | 23 | 1018.8 |
| 20260501213616 | 66 | 278 | 3.0 | 5.0 | 0.00 | 0.00 | 0.00 | 20 | 1018.9 |
| 20260501212616 | 67 | 251 | 2.0 | 5.0 | 0.00 | 0.00 | 0.00 | 20 | 1019.0 |
| 20260501211616 | 67 | 273 | 1.0 | 2.0 | 0.00 | 0.00 | 0.00 | 18 | 1019.0 |
| 20260501210616 | 67 | 267 | 2.0 | 5.0 | 0.00 | 0.00 | 0.00 | 18 | 1019.2 |
| 20260501205616 | 67 | 261 | 1.0 | 4.0 | 0.00 | 0.00 | 0.00 | 23 | 1019.3 |
| 20260501204616 | 66 | 273 | 1.0 | 4.0 | 0.00 | 0.00 | 0.00 | 23 | 1019.2 |
| 20260501203616 | 65 | 153 | 1.0 | 3.0 | 0.00 | 0.00 | 0.00 | 23 | 1019.3 |
| 20260501202615 | 65 | 267 | 2.0 | 3.0 | 0.00 | 0.00 | 0.00 | 22 | 1019.4 |
| 20260501201616 | 65 | 238 | 1.0 | 2.0 | 0.00 | 0.00 | 0.00 | 20 | 1019.6 |
| 20260501200616 | 65 | 279 | 1.0 | 2.0 | 0.00 | 0.00 | 0.00 | 21 | 1019.6 |
| 20260501195636 | 64 | 239 | 0.0 | 4.0 | 0.00 | 0.00 | 0.00 | 23 | 1019.8 |